createdAt,value
2018-05-08T00:00:48.193Z,18.59
2018-05-08T00:01:58.204Z,18.69
2018-05-08T00:03:07.975Z,18.6
2018-05-08T00:04:17.995Z,18.61
2018-05-08T00:05:28.033Z,18.57
2018-05-08T00:06:37.780Z,18.61
2018-05-08T00:07:47.770Z,18.59
2018-05-08T00:08:57.883Z,18.63
2018-05-08T00:10:07.636Z,18.56
2018-05-08T00:11:17.639Z,18.53
2018-05-08T00:12:27.391Z,18.54
2018-05-08T00:13:37.489Z,18.54
2018-05-08T00:14:47.243Z,18.53
2018-05-08T00:15:57.298Z,18.53
2018-05-08T00:17:07.328Z,18.53
2018-05-08T00:18:17.337Z,18.49
2018-05-08T00:19:27.383Z,18.45
2018-05-08T00:20:37.389Z,18.42
2018-05-08T00:21:47.191Z,18.42
2018-05-08T00:22:57.203Z,18.42
2018-05-08T00:24:06.957Z,18.42
2018-05-08T00:25:16.723Z,18.42
2018-05-08T00:26:26.743Z,18.38
2018-05-08T00:27:36.501Z,18.38
2018-05-08T00:28:46.497Z,18.26
2018-05-08T00:29:56.598Z,18.34
2018-05-08T00:31:06.619Z,18.32
2018-05-08T00:32:16.617Z,18.24
2018-05-08T00:33:26.681Z,18.31
2018-05-08T00:34:36.437Z,18.2
2018-05-08T00:35:46.457Z,18.14
2018-05-08T00:36:56.472Z,18.23
2018-05-08T00:38:06.209Z,18.2
2018-05-08T00:39:16.218Z,18.19
2018-05-08T00:40:26.235Z,18.17
2018-05-08T00:41:36.250Z,18.13
2018-05-08T00:42:46.265Z,18.26
2018-05-08T00:43:56.294Z,18.21
2018-05-08T00:45:06.329Z,18.17
2018-05-08T00:46:16.102Z,18.19
2018-05-08T00:47:26.136Z,18.11
2018-05-08T00:48:36.156Z,18.06
2018-05-08T00:49:45.913Z,18.03
2018-05-08T00:50:55.677Z,17.96
2018-05-08T00:52:05.661Z,18.02
2018-05-08T00:53:15.670Z,17.9
2018-05-08T00:54:25.675Z,17.98
2018-05-08T00:55:35.698Z,17.87
2018-05-08T00:56:45.750Z,17.92
2018-05-08T00:57:55.783Z,17.79
2018-05-08T00:59:05.791Z,17.77
2018-05-08T01:00:15.795Z,17.81
2018-05-08T01:01:25.830Z,17.74
2018-05-08T01:02:35.856Z,17.77
2018-05-08T01:03:45.636Z,17.73
2018-05-08T01:04:55.907Z,17.69
2018-05-08T01:06:05.672Z,17.65
2018-05-08T01:07:15.746Z,17.57
2018-05-08T01:08:25.767Z,17.65
2018-05-08T01:09:35.778Z,17.62
2018-05-08T01:10:45.810Z,17.54
2018-05-08T01:11:55.557Z,17.5
2018-05-08T01:13:05.317Z,17.55
2018-05-08T01:14:15.332Z,17.6
2018-05-08T01:15:25.091Z,17.54
2018-05-08T01:16:34.618Z,17.5
2018-05-08T01:17:44.630Z,17.46
2018-05-08T01:18:54.470Z,17.49
2018-05-08T01:20:04.503Z,17.46
2018-05-08T01:21:14.519Z,17.52
2018-05-08T01:22:24.527Z,17.47
2018-05-08T01:23:34.267Z,17.4
2018-05-08T01:24:44.022Z,17.42
2018-05-08T01:25:53.816Z,17.45
2018-05-08T01:27:03.908Z,17.39
2018-05-08T01:28:13.979Z,17.43
2018-05-08T01:29:24.064Z,17.43
2018-05-08T01:30:34.138Z,17.36
2018-05-08T01:31:44.480Z,17.4
2018-05-08T01:32:54.576Z,17.31
2018-05-08T01:34:04.640Z,17.35
2018-05-08T01:35:14.503Z,17.32
2018-05-08T01:36:24.326Z,17.3
2018-05-08T01:37:34.135Z,17.24
2018-05-08T01:38:43.952Z,17.28
2018-05-08T01:39:54.041Z,17.21
2018-05-08T01:41:04.132Z,17.2
2018-05-08T01:42:14.207Z,17.18
2018-05-08T01:43:24.529Z,17.25
2018-05-08T01:44:34.617Z,17.12
2018-05-08T01:45:44.813Z,17.2
2018-05-08T01:46:54.643Z,17.18
2018-05-08T01:48:04.710Z,17.12
2018-05-08T01:49:14.782Z,17.09
2018-05-08T01:50:24.325Z,17.25
2018-05-08T01:51:34.153Z,17.25
2018-05-08T01:52:44.236Z,17.2
2018-05-08T01:53:54.055Z,17.18
2018-05-08T01:55:03.869Z,17.25
2018-05-08T01:56:13.956Z,17.12
2018-05-08T01:57:24.025Z,17.09
2018-05-08T01:58:34.091Z,17.13
2018-05-08T01:59:44.164Z,17.15
2018-05-08T02:00:54.246Z,17.15
2018-05-08T02:02:04.315Z,17.12
2018-05-08T02:03:14.397Z,17.17
2018-05-08T02:04:24.464Z,17.13
2018-05-08T02:05:34.561Z,17.12
2018-05-08T02:06:44.673Z,17.13
2018-05-08T02:07:54.499Z,17.02
2018-05-08T02:09:04.586Z,17.03
2018-05-08T02:10:14.662Z,17
2018-05-08T02:11:24.769Z,16.97
2018-05-08T02:12:34.832Z,16.97
2018-05-08T02:13:44.925Z,16.97
2018-05-08T02:14:55.025Z,16.99
2018-05-08T02:16:04.836Z,16.92
2018-05-08T02:17:14.932Z,16.88
2018-05-08T02:18:24.470Z,16.88
2018-05-08T02:19:34.279Z,16.91
2018-05-08T02:20:44.383Z,16.9
2018-05-08T02:21:54.196Z,16.94
2018-05-08T02:23:04.267Z,16.84
2018-05-08T02:24:14.339Z,16.87
2018-05-08T02:25:24.416Z,16.81
2018-05-08T02:26:34.495Z,16.76
2018-05-08T02:27:44.564Z,16.67
2018-05-08T02:28:54.639Z,16.69
2018-05-08T02:30:04.474Z,16.69
2018-05-08T02:31:14.713Z,16.67
2018-05-08T02:32:24.814Z,16.59
2018-05-08T02:33:34.631Z,16.63
2018-05-08T02:34:44.455Z,16.58
2018-05-08T02:35:54.564Z,16.59
2018-05-08T02:37:04.646Z,16.62
2018-05-08T02:38:14.464Z,16.57
2018-05-08T02:39:24.542Z,16.58
2018-05-08T02:40:33.838Z,16.58
2018-05-08T02:41:43.924Z,16.63
2018-05-08T02:42:53.753Z,16.52
2018-05-08T02:44:03.296Z,16.58
2018-05-08T02:45:13.386Z,16.59
2018-05-08T02:46:23.526Z,16.58
2018-05-08T02:47:33.586Z,16.51
2018-05-08T02:48:43.669Z,16.57
2018-05-08T02:49:53.768Z,16.62
2018-05-08T02:51:03.858Z,16.58
2018-05-08T02:52:13.717Z,16.57
2018-05-08T02:53:23.802Z,16.49
2018-05-08T02:54:33.899Z,16.58
2018-05-08T02:55:43.714Z,16.62
2018-05-08T02:56:53.536Z,16.59
2018-05-08T02:58:03.643Z,16.51
2018-05-08T02:59:13.465Z,16.55
2018-05-08T03:00:23.542Z,16.54
2018-05-08T03:01:33.609Z,16.44
2018-05-08T03:02:43.412Z,16.48
2018-05-08T03:34:07.623Z,13.84
2018-05-08T03:35:17.699Z,13.79
2018-05-08T03:36:27.495Z,13.75
2018-05-08T03:37:37.045Z,13.75
2018-05-08T03:38:47.112Z,13.84
2018-05-08T03:39:57.236Z,13.87
2018-05-08T03:41:07.343Z,13.95
2018-05-08T03:42:17.432Z,14.15
2018-05-08T03:43:27.492Z,14.3
2018-05-08T03:44:37.548Z,14.46
2018-05-08T03:45:47.630Z,14.63
2018-05-08T03:46:57.721Z,14.67
2018-05-08T03:48:07.823Z,14.87
2018-05-08T03:49:17.957Z,15.13
2018-05-08T03:50:27.770Z,15.23
2018-05-08T03:51:37.588Z,15.3
2018-05-08T03:52:47.668Z,15.45
2018-05-08T03:53:57.228Z,15.52
2018-05-08T03:55:07.295Z,15.58
2018-05-08T03:56:17.366Z,15.63
2018-05-08T03:57:27.716Z,15.8
2018-05-08T03:58:37.659Z,15.84
2018-05-08T03:59:47.736Z,15.92
2018-05-08T04:00:57.798Z,15.95
2018-05-08T04:02:07.877Z,16.02
2018-05-08T04:03:18.011Z,16.16
2018-05-08T04:04:28.144Z,16.21
2018-05-08T04:05:37.697Z,16.26
2018-05-08T04:06:47.265Z,16.26
2018-05-08T04:07:57.070Z,16.36
2018-05-08T04:09:06.877Z,16.33
2018-05-08T04:10:16.685Z,16.39
2018-05-08T04:11:26.487Z,16.48
2018-05-08T04:12:36.293Z,16.4
2018-05-08T04:13:46.096Z,16.58
2018-05-08T04:14:55.917Z,16.63
2018-05-08T04:16:06.068Z,16.67
2018-05-08T04:17:16.140Z,16.81
2018-05-08T04:18:26.231Z,16.85
2018-05-08T04:19:36.057Z,17.03
2018-05-08T04:20:45.611Z,17.73
2018-05-08T04:21:55.433Z,18.97
2018-05-08T04:23:05.509Z,20.1
2018-05-08T04:24:15.315Z,20.76
2018-05-08T04:25:25.402Z,20.79
2018-05-08T04:26:35.527Z,20.26
2018-05-08T04:27:45.618Z,19.63
2018-05-08T04:28:55.166Z,19.3
2018-05-08T04:30:05.264Z,18.97
2018-05-08T04:31:15.345Z,18.84
2018-05-08T04:32:25.453Z,18.81
2018-05-08T04:33:35.089Z,18.89
2018-05-08T04:34:44.915Z,19.05
2018-05-08T04:35:54.729Z,19.28
2018-05-08T04:37:04.803Z,19.43
2018-05-08T04:38:14.602Z,19.37
2018-05-08T04:39:24.417Z,19.46
2018-05-08T04:40:34.500Z,19.79
2018-05-08T04:41:44.592Z,20.48
2018-05-08T04:42:54.662Z,21.25
2018-05-08T04:44:04.755Z,22.07
2018-05-08T04:45:14.841Z,22.96
2018-05-08T04:46:24.729Z,23.89
2018-05-08T04:47:34.921Z,24.49
2018-05-08T04:48:45.005Z,24.96
2018-05-08T04:49:55.075Z,25.37
2018-05-08T04:51:05.162Z,25.66
2018-05-08T04:52:14.985Z,26
2018-05-08T04:53:25.083Z,26.3
2018-05-08T04:54:35.163Z,26.45
2018-05-08T04:55:45.001Z,26.71
2018-05-08T04:56:54.982Z,26.81
2018-05-08T04:58:05.076Z,26.91
2018-05-08T04:59:15.148Z,27.08
2018-05-08T05:00:24.990Z,27.26
2018-05-08T05:01:35.083Z,27.45
2018-05-08T05:02:45.414Z,27.49
2018-05-08T05:03:55.746Z,27.61
2018-05-08T05:05:05.862Z,27.64
2018-05-08T05:06:15.652Z,27.69
2018-05-08T05:07:25.726Z,27.69
2018-05-08T05:08:35.807Z,27.83
2018-05-08T05:09:45.870Z,27.81
2018-05-08T05:10:55.960Z,27.94
2018-05-08T05:12:05.621Z,27.99
2018-05-08T05:13:15.693Z,27.93
2018-05-08T05:14:25.510Z,27.96
2018-05-08T05:15:35.595Z,27.91
2018-05-08T05:16:45.907Z,27.89
2018-05-08T05:17:55.837Z,27.8
2018-05-08T05:19:06.028Z,27.68
2018-05-08T05:20:15.570Z,27.64
2018-05-08T05:21:25.651Z,27.71
2018-05-08T05:22:35.462Z,27.62
2018-05-08T05:23:45.557Z,27.24
2018-05-08T05:24:55.376Z,26.17
2018-05-08T05:26:04.676Z,24.93
2018-05-08T05:27:14.756Z,24.15
2018-05-08T05:28:24.832Z,23.6
2018-05-08T05:29:34.656Z,23.4
2018-05-08T05:30:44.752Z,24.48
2018-05-08T05:31:54.836Z,25.29
2018-05-08T05:33:04.666Z,25.88
2018-05-08T05:34:14.762Z,26.24
2018-05-08T05:35:24.324Z,25.45
2018-05-08T05:36:34.421Z,24.71
2018-05-08T05:37:44.490Z,24.15
2018-05-08T05:38:54.571Z,23.82
2018-05-08T05:40:04.382Z,23.56
2018-05-08T05:41:14.199Z,23.28
2018-05-08T05:42:24.061Z,23.14
2018-05-08T05:43:34.143Z,23.03
2018-05-08T05:44:44.254Z,22.99
2018-05-08T05:45:54.075Z,23.41
2018-05-08T05:47:04.172Z,23.47
2018-05-08T05:48:14.256Z,23.56
2018-05-08T05:49:24.339Z,23.94
2018-05-08T05:50:34.176Z,24.54
2018-05-08T05:51:44.252Z,23.64
2018-05-08T05:52:54.058Z,23.24
2018-05-08T05:54:03.921Z,23.18
2018-05-08T05:55:13.737Z,22.96
2018-05-08T05:56:23.818Z,23.41
2018-05-08T05:57:33.929Z,23.15
2018-05-08T05:58:43.744Z,22.89
2018-05-08T05:59:53.809Z,22.78
2018-05-08T06:01:03.948Z,22.76
2018-05-08T06:02:14.041Z,22.64
2018-05-08T06:03:24.133Z,22.63
2018-05-08T06:04:34.230Z,22.59
2018-05-08T06:05:44.315Z,22.54
2018-05-08T06:06:54.398Z,22.51
2018-05-08T06:08:04.479Z,22.59
2018-05-08T06:09:14.570Z,22.81
2018-05-08T06:10:24.656Z,22.94
2018-05-08T06:11:34.739Z,23.01
2018-05-08T06:12:44.825Z,23.04
2018-05-08T06:13:54.915Z,22.89
2018-05-08T06:15:05.015Z,22.89
2018-05-08T06:16:15.093Z,22.81
2018-05-08T06:17:25.003Z,22.7
2018-05-08T06:18:35.086Z,22.73
2018-05-08T06:19:44.647Z,22.64
2018-05-08T06:20:54.722Z,22.69
2018-05-08T06:22:04.530Z,22.71
2018-05-08T06:23:14.674Z,22.59
2018-05-08T06:24:24.490Z,22.66
2018-05-08T06:25:34.600Z,22.66
2018-05-08T06:26:44.723Z,22.63
2018-05-08T06:27:54.800Z,22.63
2018-05-08T06:29:04.932Z,22.69
2018-05-08T06:30:14.747Z,22.6
2018-05-08T06:31:24.824Z,22.64
2018-05-08T06:32:34.910Z,22.63
2018-05-08T06:33:44.733Z,22.71
2018-05-08T06:34:54.539Z,22.75
2018-05-08T06:36:04.636Z,22.73
2018-05-08T06:37:14.462Z,22.69
2018-05-08T06:38:24.534Z,22.64
2018-05-08T06:39:34.259Z,22.73
2018-05-08T06:40:44.150Z,22.86
2018-05-08T06:41:53.961Z,22.92
2018-05-08T06:43:04.053Z,23.09
2018-05-08T06:44:13.944Z,23.16
2018-05-08T06:45:23.785Z,23.16
2018-05-08T06:46:33.399Z,23.19
2018-05-08T06:47:43.609Z,23.24
2018-05-08T06:48:53.690Z,23.34
2018-05-08T06:50:03.809Z,23.57
2018-05-08T06:51:13.626Z,23.42
2018-05-08T06:52:23.705Z,23.25
2018-05-08T06:53:33.797Z,23.34
2018-05-08T06:54:43.866Z,23.25
2018-05-08T06:55:53.766Z,23.18
2018-05-08T06:57:03.585Z,23.15
2018-05-08T06:58:13.779Z,23.15
2018-05-08T06:59:23.864Z,23.4
2018-05-08T07:00:33.954Z,23.6
2018-05-08T07:01:44.047Z,23.78
2018-05-08T07:02:54.196Z,23.82
2018-05-08T07:04:04.313Z,23.78
2018-05-08T07:05:14.385Z,23.75
2018-05-08T07:06:24.472Z,23.72
2018-05-08T07:07:34.288Z,23.78
2018-05-08T07:08:44.369Z,23.79
2018-05-08T07:09:54.457Z,24.03
2018-05-08T07:11:04.273Z,24
2018-05-08T07:12:14.368Z,24.32
2018-05-08T07:13:24.452Z,24.45
2018-05-08T07:14:34.261Z,24.39
2018-05-08T07:15:44.500Z,24.49
2018-05-08T07:16:55.150Z,24.69
2018-05-08T07:18:05.415Z,24.74
2018-05-08T07:19:15.251Z,24.77
2018-05-08T07:20:25.338Z,24.9
2018-05-08T07:21:35.145Z,24.9
2018-05-08T07:22:45.245Z,25.01
2018-05-08T07:23:55.218Z,25.17
2018-05-08T07:25:05.359Z,25.26
2018-05-08T07:26:15.189Z,25.56
2018-05-08T07:27:24.500Z,25.78
2018-05-08T07:28:34.575Z,26.07
2018-05-08T07:29:44.407Z,26.61
2018-05-08T07:30:54.290Z,26.96
2018-05-08T07:32:04.442Z,27.23
2018-05-08T07:33:14.543Z,27.43
2018-05-08T07:34:24.649Z,27.36
2018-05-08T07:35:34.490Z,27.42
2018-05-08T07:36:44.580Z,27.21
2018-05-08T07:37:54.398Z,27.09
2018-05-08T07:39:04.217Z,27.06
2018-05-08T07:40:13.762Z,26.96
2018-05-08T07:41:23.834Z,27.13
2018-05-08T07:42:33.919Z,27.36
2018-05-08T07:43:43.747Z,27.24
2018-05-08T07:44:53.843Z,27.42
2018-05-08T07:46:03.924Z,27.15
2018-05-08T07:47:14.008Z,27.05
2018-05-08T07:48:24.102Z,27.01
2018-05-08T07:49:33.933Z,27.16
2018-05-08T07:50:44.136Z,27.12
2018-05-08T07:51:54.478Z,27.12
2018-05-08T07:53:04.309Z,26.99
2018-05-08T07:54:14.414Z,26.84
2018-05-08T07:55:24.500Z,26.75
2018-05-08T07:56:34.596Z,26.72
2018-05-08T07:57:44.930Z,26.68
2018-05-08T07:58:55.018Z,26.71
2018-05-08T08:00:05.120Z,26.72
2018-05-08T08:01:14.961Z,26.76
2018-05-08T08:02:24.789Z,26.91
2018-05-08T08:03:34.881Z,26.75
2018-05-08T08:04:45.028Z,26.61
2018-05-08T08:05:55.102Z,26.68
2018-05-08T08:07:05.208Z,26.45
2018-05-08T08:08:15.313Z,26.38
2018-05-08T08:09:24.899Z,26.32
2018-05-08T08:10:34.988Z,26.39
2018-05-08T08:11:45.163Z,26.37
2018-05-08T08:12:55.251Z,26.39
2018-05-08T08:14:05.404Z,26.6
2018-05-08T08:15:15.502Z,26.63
2018-05-08T08:16:25.585Z,26.76
2018-05-08T08:17:35.415Z,26.74
2018-05-08T08:18:45.494Z,26.9
2018-05-08T08:19:55.626Z,26.94
2018-05-08T08:21:05.693Z,27.06
2018-05-08T08:22:15.513Z,27.04
2018-05-08T08:23:25.609Z,27.05
2018-05-08T08:24:35.710Z,26.96
2018-05-08T08:25:45.826Z,26.97
2018-05-08T08:26:55.647Z,26.97
2018-05-08T08:28:05.742Z,26.93
2018-05-08T08:29:15.819Z,26.71
2018-05-08T08:30:25.923Z,26.52
2018-05-08T08:31:35.753Z,26.45
2018-05-08T08:32:45.866Z,26.42
2018-05-08T08:33:56.034Z,26.31
2018-05-08T08:35:05.902Z,26.47
2018-05-08T08:36:15.989Z,26.44
2018-05-08T08:37:25.849Z,26.41
2018-05-08T08:38:35.763Z,26.41
2018-05-08T08:39:45.951Z,26.41
2018-05-08T08:40:55.975Z,26.35
2018-05-08T08:42:06.247Z,26.27
2018-05-08T08:43:16.133Z,26.2
2018-05-08T08:44:26.221Z,26.3
2018-05-08T08:45:36.053Z,26.24
2018-05-08T08:46:46.134Z,26.3
2018-05-08T08:47:56.284Z,26.27
2018-05-08T08:49:06.369Z,26.22
2018-05-08T08:50:16.506Z,26.07
2018-05-08T08:51:26.613Z,25.94
2018-05-08T08:52:36.866Z,25.79
2018-05-08T08:53:46.954Z,25.67
2018-05-08T08:54:56.789Z,25.6
2018-05-08T08:56:07.185Z,25.6
2018-05-08T08:57:16.737Z,25.63
2018-05-08T08:58:26.285Z,25.7
2018-05-08T08:59:36.108Z,25.82
2018-05-08T09:00:45.986Z,25.85
2018-05-08T09:01:55.821Z,25.88
2018-05-08T09:03:05.915Z,26
2018-05-08T09:04:16.004Z,25.94
2018-05-08T09:05:26.114Z,26
2018-05-08T09:06:36.214Z,26.19
2018-05-08T09:07:46.298Z,26.15
2018-05-08T09:08:56.387Z,26.3
2018-05-08T09:10:06.525Z,26.45
2018-05-08T09:11:16.694Z,26.68
2018-05-08T09:12:26.691Z,26.9
2018-05-08T09:13:36.816Z,26.93
2018-05-08T09:14:46.943Z,26.97
2018-05-08T09:15:56.239Z,27.13
2018-05-08T09:17:06.326Z,27.09
2018-05-08T09:18:16.433Z,27.19
2018-05-08T09:19:26.501Z,27.16
2018-05-08T09:20:36.688Z,27.28
2018-05-08T09:21:46.772Z,27.24
2018-05-08T09:22:56.873Z,27.27
2018-05-08T09:24:06.970Z,27.33
2018-05-08T09:25:17.056Z,27.38
2018-05-08T09:26:26.973Z,27.38
2018-05-08T09:27:37.318Z,27.55
2018-05-08T09:28:47.357Z,27.66
2018-05-08T09:29:56.918Z,27.86
2018-05-08T09:31:07.010Z,28.02
2018-05-08T09:32:17.366Z,28.12
2018-05-08T09:33:27.194Z,28.26
2018-05-08T09:34:37.020Z,28.42
2018-05-08T09:35:46.905Z,28.53
2018-05-08T09:36:56.976Z,28.68
2018-05-08T09:38:06.607Z,28.88
2018-05-08T09:39:16.694Z,29.01
2018-05-08T09:40:26.783Z,29.14
2018-05-08T09:41:36.903Z,29.26
2018-05-08T09:42:46.715Z,29.32
2018-05-08T09:43:56.868Z,29.47
2018-05-08T09:45:06.990Z,29.73
2018-05-08T09:46:16.557Z,29.77
2018-05-08T09:47:26.405Z,29.73
2018-05-08T09:48:36.497Z,30.09
2018-05-08T09:49:46.323Z,29.76
2018-05-08T09:50:56.407Z,29.63
2018-05-08T09:52:06.503Z,29.43
2018-05-08T09:53:16.603Z,29.33
2018-05-08T09:54:26.729Z,29.18
2018-05-08T09:55:36.836Z,29.02
2018-05-08T09:56:46.402Z,28.86
2018-05-08T09:57:56.260Z,28.7
2018-05-08T09:59:06.364Z,28.51
2018-05-08T10:00:16.470Z,28.36
2018-05-08T10:01:26.609Z,28.31
2018-05-08T10:02:36.712Z,28.18
2018-05-08T10:03:46.813Z,28.18
2018-05-08T10:04:56.638Z,28.18
2018-05-08T10:06:06.733Z,28.14
2018-05-08T10:07:16.562Z,28.11
2018-05-08T10:08:26.642Z,28.11
2018-05-08T10:09:36.498Z,28.16
2018-05-08T10:10:46.370Z,28.14
2018-05-08T10:11:56.479Z,28.23
2018-05-08T10:13:06.582Z,28.21
2018-05-08T10:14:16.440Z,28.17
2018-05-08T10:15:26.269Z,28.24
2018-05-08T10:16:35.839Z,28.2
2018-05-08T10:17:45.943Z,28.21
2018-05-08T10:18:56.027Z,28.23
2018-05-08T10:20:06.431Z,28.21
2018-05-08T10:21:16.329Z,28.26
2018-05-08T10:22:26.433Z,28.33
2018-05-08T10:23:36.530Z,28.26
2018-05-08T10:24:46.791Z,28.31
2018-05-08T10:25:56.903Z,28.36
2018-05-08T10:27:07.039Z,28.33
2018-05-08T10:28:18.422Z,28.39
2018-05-08T10:29:28.263Z,28.43
2018-05-08T10:30:38.342Z,28.55
2018-05-08T10:31:48.578Z,28.6
2018-05-08T10:32:58.852Z,28.68
2018-05-08T10:34:08.179Z,28.64
2018-05-08T10:35:18.296Z,28.78
2018-05-08T10:36:28.399Z,28.9
2018-05-08T10:37:38.222Z,28.94
2018-05-08T10:38:48.291Z,28.98
2018-05-08T10:39:58.377Z,29.01
2018-05-08T10:41:08.470Z,29.11
2018-05-08T10:42:18.388Z,29.29
2018-05-08T10:43:28.569Z,29.43
2018-05-08T10:44:38.660Z,29.45
2018-05-08T10:45:48.750Z,29.72
2018-05-08T10:46:58.836Z,30
2018-05-08T10:48:08.720Z,30.06
2018-05-08T10:49:18.824Z,30.34
2018-05-08T10:50:28.917Z,30.49
2018-05-08T10:51:38.763Z,30.64
2018-05-08T10:52:48.608Z,30.71
2018-05-08T10:53:58.512Z,30.78
2018-05-08T10:55:08.591Z,30.89
2018-05-08T10:56:18.685Z,30.97
2018-05-08T10:57:28.785Z,31.1
2018-05-08T10:58:38.364Z,31.19
2018-05-08T10:59:48.179Z,31.3
2018-05-08T11:00:58.002Z,31.45
2018-05-08T11:02:08.093Z,31.44
2018-05-08T11:03:18.178Z,31.44
2018-05-08T11:04:28.289Z,31.58
2018-05-08T11:05:38.473Z,31.7
2018-05-08T11:06:48.572Z,31.72
2018-05-08T11:07:58.662Z,31.81
2018-05-08T11:09:09.115Z,31.78
2018-05-08T11:10:19.204Z,31.7
2018-05-08T11:11:29.282Z,31.8
2018-05-08T11:12:39.379Z,31.78
2018-05-08T11:13:49.461Z,31.88
2018-05-08T11:14:59.587Z,31.98
2018-05-08T11:16:09.427Z,32.03
2018-05-08T11:17:19.500Z,32.05
2018-05-08T11:18:29.572Z,32.08
2018-05-08T11:19:39.726Z,32.09
2018-05-08T11:20:49.941Z,31.81
2018-05-08T11:22:00.039Z,31.86
2018-05-08T11:23:10.171Z,31.75
2018-05-08T11:24:20.028Z,31.63
2018-05-08T11:25:30.119Z,31.45
2018-05-08T11:26:40.653Z,31.43
2018-05-08T11:27:51.068Z,31.4
2018-05-08T11:29:01.163Z,31.43
2018-05-08T11:30:11.269Z,31.49
2018-05-08T11:31:21.370Z,31.67
2018-05-08T11:32:31.460Z,31.86
2018-05-08T11:33:41.290Z,31.94
2018-05-08T11:34:51.433Z,32.12
2018-05-08T11:36:01.526Z,32.28
2018-05-08T11:37:11.637Z,32.43
2018-05-08T11:38:21.741Z,32.54
2018-05-08T11:39:31.823Z,32.61
2018-05-08T11:40:41.642Z,32.75
2018-05-08T11:41:51.752Z,32.81
2018-05-08T11:43:01.934Z,32.83
2018-05-08T11:44:11.761Z,32.91
2018-05-08T11:45:21.866Z,32.96
2018-05-08T11:46:31.737Z,32.99
2018-05-08T11:47:41.833Z,32.38
2018-05-08T11:48:51.656Z,31.88
2018-05-08T11:50:01.716Z,32.17
2018-05-08T11:51:11.810Z,32.38
2018-05-08T11:52:21.427Z,32.64
2018-05-08T11:53:31.515Z,32.68
2018-05-08T11:54:41.362Z,32.65
2018-05-08T11:55:51.204Z,33.01
2018-05-08T11:57:01.285Z,33.2
2018-05-08T11:58:11.152Z,33.08
2018-05-08T11:59:21.277Z,33.26
2018-05-08T12:00:31.374Z,33.31
2018-05-08T12:01:41.480Z,33.53
2018-05-08T12:02:51.287Z,33.62
2018-05-08T12:04:01.368Z,33.73
2018-05-08T12:05:11.215Z,33.74
2018-05-08T12:06:21.052Z,33.69
2018-05-08T12:07:31.148Z,33.52
2018-05-08T12:08:41.251Z,33.48
2018-05-08T12:09:51.403Z,33.44
2018-05-08T12:11:01.246Z,33.4
2018-05-08T12:12:11.353Z,33.39
2018-05-08T12:13:21.442Z,33.44
2018-05-08T12:14:31.749Z,33.48
2018-05-08T12:15:42.051Z,33.32
2018-05-08T12:16:51.867Z,32.67
2018-05-08T12:18:01.988Z,32.06
2018-05-08T12:19:12.071Z,31.87
2018-05-08T12:20:22.178Z,31.31
2018-05-08T12:21:32.047Z,31.21
2018-05-08T12:22:42.145Z,31.4
2018-05-08T12:23:52.243Z,31.44
2018-05-08T12:25:02.350Z,31.44
2018-05-08T12:26:12.457Z,31.41
2018-05-08T12:27:22.585Z,31.44
2018-05-08T12:28:32.687Z,31.45
2018-05-08T12:29:42.778Z,31.53
2018-05-08T12:30:52.870Z,31.62
2018-05-08T12:32:02.968Z,31.16
2018-05-08T12:33:12.839Z,30.79
2018-05-08T12:34:22.939Z,30.37
2018-05-08T12:35:32.783Z,30.19
2018-05-08T12:36:42.900Z,30.13
2018-05-08T12:37:53.013Z,29.81
2018-05-08T12:39:03.107Z,29.81
2018-05-08T12:40:12.995Z,30.13
2018-05-08T12:41:22.851Z,30.42
2018-05-08T12:42:32.685Z,30.56
2018-05-08T12:43:42.768Z,30.1
2018-05-08T12:44:52.862Z,29.81
2018-05-08T12:46:02.964Z,29.66
2018-05-08T12:47:13.073Z,29.76
2018-05-08T12:48:23.151Z,30.21
2018-05-08T12:49:33.267Z,30.49
2018-05-08T12:50:43.416Z,30.89
2018-05-08T12:51:53.367Z,31.28
2018-05-08T12:53:03.218Z,31.8
2018-05-08T12:54:13.328Z,32.16
2018-05-08T12:55:23.428Z,32.56
2018-05-08T12:56:33.530Z,32.84
2018-05-08T12:57:43.643Z,33.21
2018-05-08T12:58:53.515Z,33.32
2018-05-08T13:00:03.478Z,33.32
2018-05-08T13:01:13.316Z,33.36
2018-05-08T13:02:23.738Z,33.4
2018-05-08T13:03:33.857Z,33.47
2018-05-08T13:04:43.975Z,33.5
2018-05-08T13:05:54.107Z,33.52
2018-05-08T13:07:03.930Z,33.24
2018-05-08T13:08:13.778Z,32.87
2018-05-08T13:09:23.861Z,32.9
2018-05-08T13:10:33.979Z,33.03
2018-05-08T13:11:44.100Z,32.75
2018-05-08T13:12:53.942Z,32.39
2018-05-08T13:14:04.060Z,32.12
2018-05-08T13:15:14.227Z,31.91
2018-05-08T13:16:24.061Z,31.86
2018-05-08T13:17:34.158Z,31.81
2018-05-08T13:18:44.292Z,31.81
2018-05-08T13:19:54.113Z,31.88
2018-05-08T13:21:04.200Z,31.78
2018-05-08T13:22:14.301Z,31.77
2018-05-08T13:23:24.393Z,31.88
2018-05-08T13:24:34.494Z,32.43
2018-05-08T13:25:44.397Z,32.81
2018-05-08T13:26:54.018Z,32.49
2018-05-08T13:28:04.118Z,32.45
2018-05-08T13:29:13.944Z,32.42
2018-05-08T13:30:24.049Z,32.56
2018-05-08T13:31:34.146Z,32.24
2018-05-08T13:32:44.268Z,32.32
2018-05-08T13:33:54.639Z,32.05
2018-05-08T13:35:04.470Z,31.8
2018-05-08T13:36:14.587Z,31.65
2018-05-08T13:37:24.438Z,31.55
2018-05-08T13:38:34.542Z,31.45
2018-05-08T13:39:44.654Z,31.28
2018-05-08T13:40:54.501Z,31.21
2018-05-08T13:42:04.942Z,31
2018-05-08T13:43:15.046Z,30.89
2018-05-08T13:44:25.241Z,30.86
2018-05-08T13:45:35.341Z,30.73
2018-05-08T13:46:45.420Z,30.99
2018-05-08T13:47:55.504Z,31.18
2018-05-08T13:49:05.666Z,31.38
2018-05-08T13:50:15.828Z,31.67
2018-05-08T13:51:25.913Z,31.65
2018-05-08T13:52:35.986Z,31.78
2018-05-08T13:53:46.080Z,32.06
2018-05-08T13:54:56.278Z,32.3
2018-05-08T13:56:06.562Z,32.39
2018-05-08T13:57:16.659Z,32.57
2018-05-08T13:58:26.759Z,32.69
2018-05-08T13:59:36.069Z,32.62
2018-05-08T14:00:46.163Z,32.76
2018-05-08T14:01:56.384Z,33.02
2018-05-08T14:03:06.466Z,33.26
2018-05-08T14:04:16.574Z,33.31
2018-05-08T14:05:26.665Z,33.59
2018-05-08T14:06:37.106Z,33.92
2018-05-08T14:07:47.687Z,34.03
2018-05-08T14:08:57.791Z,34.11
2018-05-08T14:10:07.634Z,34.06
2018-05-08T14:11:17.491Z,34.05
2018-05-08T14:12:27.596Z,33.97
2018-05-08T14:13:37.688Z,33.85
2018-05-08T14:14:47.783Z,33.52
2018-05-08T14:15:57.911Z,33.09
2018-05-08T14:17:07.766Z,32.74
2018-05-08T14:18:17.871Z,32.57
2018-05-08T14:19:28.163Z,32.52
2018-05-08T14:20:38.017Z,32.2
2018-05-08T14:21:48.116Z,31.74
2018-05-08T14:22:58.215Z,31.43
2018-05-08T14:24:08.336Z,31.01
2018-05-08T14:25:18.534Z,30.62
2018-05-08T14:26:28.628Z,30.32
2018-05-08T14:27:38.717Z,30.06
2018-05-08T14:28:48.570Z,29.77
2018-05-08T14:29:58.658Z,29.45
2018-05-08T14:31:08.767Z,29.43
2018-05-08T14:32:18.868Z,29.17
2018-05-08T14:33:28.979Z,28.94
2018-05-08T14:34:39.082Z,28.82
2018-05-08T14:35:49.231Z,28.48
2018-05-08T14:36:59.578Z,28.35
2018-05-08T14:38:09.427Z,27.99
2018-05-08T14:39:19.266Z,27.75
2018-05-08T14:40:29.087Z,27.36
2018-05-08T14:41:38.929Z,27.16
2018-05-08T14:42:49.287Z,26.87
2018-05-08T14:43:59.381Z,26.42
2018-05-08T14:45:09.556Z,26.03
2018-05-08T14:46:19.655Z,25.75
2018-05-08T14:47:29.766Z,25.56
2018-05-08T14:48:39.932Z,25.39
2018-05-08T14:49:50.034Z,25.27
2018-05-08T14:51:00.138Z,25.12
2018-05-08T14:52:10.237Z,25.26
2018-05-08T14:53:20.077Z,25.23
2018-05-08T14:54:30.278Z,25.33
2018-05-08T14:55:40.369Z,25.66
2018-05-08T14:56:50.452Z,25.7
2018-05-08T14:58:00.284Z,25.63
2018-05-08T14:59:10.371Z,25.69
2018-05-08T15:00:20.526Z,25.71
2018-05-08T15:01:30.638Z,25.81
2018-05-08T15:02:40.484Z,25.82
2018-05-08T15:03:50.299Z,25.76
2018-05-08T15:05:00.114Z,25.94
2018-05-08T15:06:09.995Z,26.01
2018-05-08T15:07:20.101Z,26.11
2018-05-08T15:08:29.930Z,26.19
2018-05-08T15:09:39.765Z,26.32
2018-05-08T15:10:49.876Z,26.45
2018-05-08T15:12:00.025Z,26.78
2018-05-08T15:13:10.226Z,26.96
2018-05-08T15:14:20.576Z,27.06
2018-05-08T15:15:30.406Z,27.04
2018-05-08T15:16:40.241Z,26.93
2018-05-08T15:17:50.331Z,26.82
2018-05-08T15:19:00.429Z,26.76
2018-05-08T15:20:10.268Z,26.76
2018-05-08T15:21:20.113Z,26.91
2018-05-08T15:22:30.245Z,27.26
2018-05-08T15:23:40.492Z,27.53
2018-05-08T15:24:50.349Z,27.75
2018-05-08T15:26:00.469Z,27.83
2018-05-08T15:27:10.635Z,27.99
2018-05-08T15:28:20.467Z,28.14
2018-05-08T15:29:30.583Z,28.28
2018-05-08T15:30:40.197Z,28.53
2018-05-08T15:31:50.298Z,28.67
2018-05-08T15:33:00.406Z,28.65
2018-05-08T15:34:10.237Z,28.8
2018-05-08T15:35:20.375Z,28.82